Share

Adrian, GA

Emanuel County (KSBO) Elev 328 ft | 32.61 °N, 82.37 °W | Change Station
Active Advisory: Areal Flood WatchWind Advisory

Current weather conditions updated 24 minutes ago

Heavy Rain
Heavy Rain
52 °F
Feels Like 52 °F
N
16
Wind Variable Wind from ENE
Gusts 24 mph
Sunrise 6:57 AM
Sunset 8:02 PM
Moon Waning Gibbous

Tomorrow is forecast to be Warmer than today. Occasional showers possible.

Pressure 30.04 in
Visibility 3.0 miles
Clouds Overcast 600 ft
Dew Point 52 °F
Humidity 100%
Rainfall 0.00 in
Snow Depth Not available.
UV 0 out of 16
Pollen 3.10 out of 12
Air Quality Not available.
Flu Activity Sporadic
METAR KSBO 182335Z AUTO 07014G21KT 3SM +RA OVC006 11/11 A3004 RMK AO2 LTG DSNT SE

More Conditions Fewer Conditions

Pressure 30.04 in
Visibility 3.0 miles
Clouds Overcast 600 ft
Dew Point 52 °F
Humidity 100%
Rainfall 0.00 in
Snow Depth Not available.
UV 0 out of 16
Pollen 3.10 out of 12
Air Quality Not available.
Flu Activity Sporadic
METAR KSBO 182335Z AUTO 07014G21KT 3SM +RA OVC006 11/11 A3004 RMK AO2 LTG DSNT SE

More Conditions Fewer Conditions

10-Day Weather Forecast

Almanac

Astronomy

Apr. 18, 2014 Rise Set
Actual Time 6:57 AM EDT 8:02 PM EDT
Civil Twilight 6:32 AM EDT 8:27 PM EDT
Nautical Twilight 6:01 AM EDT 8:58 PM EDT
Astronomical Twilight 5:30 AM EDT 9:29 PM EDT
Moon 11:38 PM EDT 9:25 AM EDT
Length of Visible Light 13h 55m
Length of Day
13h 04m
Tomorrow will be 1m 53s longer.
Waning Gibbous, 84% of the Moon is Illuminated
Today
Waning Gibbous
Apr 22
Last Quarter
Apr 29
New
May 6
First Quarter
May 14
Full

Today's Extremes

State Highs State Lows

Community

  • Spring Chickadee
    Spring Chickadee
  • What's for Lunch?
    What's for Lunch?
  • SUNRISE THROUGH THE TREES.
    SUNRISE THROUGH THE TREES.
  • Dog Wood Blossoms
    Dog Wood Blossoms
  • Morning Light
    Morning Light

WunderPhotos

Upload Photos

1,702,546 photos uploaded!

WunderBlogs® & News

By Dr. Jeff Masters
Director of Meteorology, Weather Underground
By Kari Strenfel
Meteorologist, Weather Underground
By Christopher C. Burt
Weather Historian, Weather Underground
April 18, 2014
April 18, 2014
April 18, 2014

Nearby

Snow Depth

Station Depth Elevation
No new snow has been reported.

Coastal Water Temperatures

Place Temperature
No Stations Reporting

Earthquake Activity

City Distance Mag. Time & Date
No recent earthquake activity has been reported nearby.
Minimum magnitude displayed is 2.5.

Nearby Weather Stations

Station Location Temp. Dew Point Humidity Wind Precip. Elev Updated Type
South Treutlen Co., Soperton, GA 55.0 °F 55 °F 100% South  at  3.0 mph 0.12 in / hr 236 ft 7:59 PM EDT Rapid Fire

Show More Stations Show Fewer Stations

What do you think?

We're not finished. Please let us know what you like, what you don't like, and what you are still missing.